sensor_id;sensor_type;location;lat;lon;timestamp;P1;durP1;ratioP1;P2;durP2;ratioP2
2199;SDS011;1106;48.762;9.168;2022-07-04T00:01:25;26.20;;;24.63;;
2199;SDS011;1106;48.762;9.168;2022-07-04T00:03:52;25.70;;;24.40;;
2199;SDS011;1106;48.762;9.168;2022-07-04T00:06:19;25.30;;;24.07;;
2199;SDS011;1106;48.762;9.168;2022-07-04T00:08:46;26.20;;;24.80;;
2199;SDS011;1106;48.762;9.168;2022-07-04T00:11:14;27.10;;;25.60;;
2199;SDS011;1106;48.762;9.168;2022-07-04T00:13:41;27.07;;;25.57;;
2199;SDS011;1106;48.762;9.168;2022-07-04T00:16:08;26.40;;;25.10;;
2199;SDS011;1106;48.762;9.168;2022-07-04T00:18:34;26.47;;;25.03;;
2199;SDS011;1106;48.762;9.168;2022-07-04T00:21:01;25.30;;;23.90;;
2199;SDS011;1106;48.762;9.168;2022-07-04T00:23:28;25.20;;;23.73;;
2199;SDS011;1106;48.762;9.168;2022-07-04T00:25:55;25.00;;;23.70;;
2199;SDS011;1106;48.762;9.168;2022-07-04T00:28:24;24.80;;;23.40;;
2199;SDS011;1106;48.762;9.168;2022-07-04T00:30:51;24.83;;;23.43;;
2199;SDS011;1106;48.762;9.168;2022-07-04T00:33:17;25.33;;;23.73;;
2199;SDS011;1106;48.762;9.168;2022-07-04T00:35:44;25.77;;;24.37;;
2199;SDS011;1106;48.762;9.168;2022-07-04T00:38:11;25.70;;;24.30;;
2199;SDS011;1106;48.762;9.168;2022-07-04T00:40:38;25.73;;;24.33;;
2199;SDS011;1106;48.762;9.168;2022-07-04T00:43:05;26.27;;;24.20;;
2199;SDS011;1106;48.762;9.168;2022-07-04T00:45:34;25.90;;;24.40;;
2199;SDS011;1106;48.762;9.168;2022-07-04T00:48:01;26.13;;;24.73;;
2199;SDS011;1106;48.762;9.168;2022-07-04T00:50:28;26.37;;;24.60;;
2199;SDS011;1106;48.762;9.168;2022-07-04T00:52:55;26.03;;;24.60;;
2199;SDS011;1106;48.762;9.168;2022-07-04T00:55:22;26.50;;;25.00;;
2199;SDS011;1106;48.762;9.168;2022-07-04T00:57:49;25.47;;;24.13;;
2199;SDS011;1106;48.762;9.168;2022-07-04T01:00:16;24.60;;;23.23;;
2199;SDS011;1106;48.762;9.168;2022-07-04T01:02:46;25.10;;;23.80;;
2199;SDS011;1106;48.762;9.168;2022-07-04T01:05:13;26.97;;;25.07;;
2199;SDS011;1106;48.762;9.168;2022-07-04T01:07:40;25.60;;;24.20;;
2199;SDS011;1106;48.762;9.168;2022-07-04T01:10:08;25.53;;;24.03;;
2199;SDS011;1106;48.762;9.168;2022-07-04T01:12:36;25.83;;;24.37;;
2199;SDS011;1106;48.762;9.168;2022-07-04T01:15:04;25.20;;;23.80;;
2199;SDS011;1106;48.762;9.168;2022-07-04T01:17:32;26.60;;;24.80;;
2199;SDS011;1106;48.762;9.168;2022-07-04T01:20:00;25.60;;;24.20;;
2199;SDS011;1106;48.762;9.168;2022-07-04T01:22:29;24.80;;;23.50;;
2199;SDS011;1106;48.762;9.168;2022-07-04T01:24:56;24.97;;;23.50;;
2199;SDS011;1106;48.762;9.168;2022-07-04T01:27:22;24.83;;;23.40;;
2199;SDS011;1106;48.762;9.168;2022-07-04T01:29:49;24.90;;;23.60;;
2199;SDS011;1106;48.762;9.168;2022-07-04T01:32:16;24.50;;;23.30;;
2199;SDS011;1106;48.762;9.168;2022-07-04T01:34:43;25.60;;;24.10;;
2199;SDS011;1106;48.762;9.168;2022-07-04T01:37:10;24.90;;;23.40;;
2199;SDS011;1106;48.762;9.168;2022-07-04T01:39:39;24.93;;;23.63;;
2199;SDS011;1106;48.762;9.168;2022-07-04T01:42:06;24.50;;;23.13;;
2199;SDS011;1106;48.762;9.168;2022-07-04T01:44:33;25.50;;;24.00;;
2199;SDS011;1106;48.762;9.168;2022-07-04T01:47:00;25.90;;;24.30;;
2199;SDS011;1106;48.762;9.168;2022-07-04T01:49:28;25.60;;;24.10;;
2199;SDS011;1106;48.762;9.168;2022-07-04T01:51:55;26.73;;;25.10;;
2199;SDS011;1106;48.762;9.168;2022-07-04T01:54:22;25.07;;;23.67;;
2199;SDS011;1106;48.762;9.168;2022-07-04T01:56:51;25.47;;;23.97;;
2199;SDS011;1106;48.762;9.168;2022-07-04T01:59:18;25.73;;;24.20;;
2199;SDS011;1106;48.762;9.168;2022-07-04T02:02:06;25.10;;;23.70;;
2199;SDS011;1106;48.762;9.168;2022-07-04T02:04:32;25.27;;;23.47;;
2199;SDS011;1106;48.762;9.168;2022-07-04T02:06:59;26.20;;;24.70;;
2199;SDS011;1106;48.762;9.168;2022-07-04T02:09:27;25.40;;;23.80;;
2199;SDS011;1106;48.762;9.168;2022-07-04T02:11:57;25.00;;;23.60;;
2199;SDS011;1106;48.762;9.168;2022-07-04T02:14:41;25.37;;;23.87;;
2199;SDS011;1106;48.762;9.168;2022-07-04T02:17:09;25.00;;;23.60;;
2199;SDS011;1106;48.762;9.168;2022-07-04T02:19:35;25.60;;;24.10;;
2199;SDS011;1106;48.762;9.168;2022-07-04T02:22:03;25.07;;;23.60;;
2199;SDS011;1106;48.762;9.168;2022-07-04T02:24:30;25.00;;;23.60;;
2199;SDS011;1106;48.762;9.168;2022-07-04T02:26:58;24.70;;;23.30;;
2199;SDS011;1106;48.762;9.168;2022-07-04T02:29:25;27.57;;;25.87;;
2199;SDS011;1106;48.762;9.168;2022-07-04T02:31:52;25.93;;;24.50;;
2199;SDS011;1106;48.762;9.168;2022-07-04T02:34:19;26.10;;;24.50;;
2199;SDS011;1106;48.762;9.168;2022-07-04T02:36:46;28.40;;;26.50;;
2199;SDS011;1106;48.762;9.168;2022-07-04T02:39:13;25.40;;;23.83;;
2199;SDS011;1106;48.762;9.168;2022-07-04T02:41:40;25.27;;;23.70;;
2199;SDS011;1106;48.762;9.168;2022-07-04T02:44:09;25.47;;;23.70;;
2199;SDS011;1106;48.762;9.168;2022-07-04T02:46:36;25.50;;;23.97;;
2199;SDS011;1106;48.762;9.168;2022-07-04T02:49:03;27.90;;;26.30;;
2199;SDS011;1106;48.762;9.168;2022-07-04T02:51:30;26.43;;;24.73;;
2199;SDS011;1106;48.762;9.168;2022-07-04T02:53:57;25.80;;;24.30;;
2199;SDS011;1106;48.762;9.168;2022-07-04T02:56:25;25.20;;;23.70;;
2199;SDS011;1106;48.762;9.168;2022-07-04T02:58:52;26.27;;;24.60;;
2199;SDS011;1106;48.762;9.168;2022-07-04T03:01:20;26.97;;;25.10;;
2199;SDS011;1106;48.762;9.168;2022-07-04T03:03:47;26.20;;;24.80;;
2199;SDS011;1106;48.762;9.168;2022-07-04T03:06:14;26.70;;;24.63;;
2199;SDS011;1106;48.762;9.168;2022-07-04T03:08:42;25.57;;;24.17;;
2199;SDS011;1106;48.762;9.168;2022-07-04T03:11:09;28.37;;;26.67;;
2199;SDS011;1106;48.762;9.168;2022-07-04T03:13:36;30.53;;;28.70;;
2199;SDS011;1106;48.762;9.168;2022-07-04T03:16:05;26.40;;;24.70;;
2199;SDS011;1106;48.762;9.168;2022-07-04T03:18:33;27.20;;;25.50;;
2199;SDS011;1106;48.762;9.168;2022-07-04T03:21:00;26.50;;;24.80;;
2199;SDS011;1106;48.762;9.168;2022-07-04T03:23:29;26.90;;;25.10;;
2199;SDS011;1106;48.762;9.168;2022-07-04T03:25:56;28.47;;;26.70;;
2199;SDS011;1106;48.762;9.168;2022-07-04T03:28:23;33.07;;;31.07;;
2199;SDS011;1106;48.762;9.168;2022-07-04T03:30:50;27.50;;;25.90;;
2199;SDS011;1106;48.762;9.168;2022-07-04T03:33:17;28.93;;;27.17;;
2199;SDS011;1106;48.762;9.168;2022-07-04T03:35:46;27.07;;;25.37;;
2199;SDS011;1106;48.762;9.168;2022-07-04T03:38:12;28.80;;;27.10;;
2199;SDS011;1106;48.762;9.168;2022-07-04T03:40:39;26.77;;;25.07;;
2199;SDS011;1106;48.762;9.168;2022-07-04T03:43:07;28.13;;;26.13;;
2199;SDS011;1106;48.762;9.168;2022-07-04T03:45:34;26.53;;;24.70;;
2199;SDS011;1106;48.762;9.168;2022-07-04T03:48:01;27.23;;;25.53;;
2199;SDS011;1106;48.762;9.168;2022-07-04T03:50:28;27.07;;;25.37;;
2199;SDS011;1106;48.762;9.168;2022-07-04T03:52:57;26.53;;;24.93;;
2199;SDS011;1106;48.762;9.168;2022-07-04T03:55:24;26.83;;;25.23;;
2199;SDS011;1106;48.762;9.168;2022-07-04T03:57:51;26.63;;;24.93;;
2199;SDS011;1106;48.762;9.168;2022-07-04T04:00:18;30.10;;;28.13;;
2199;SDS011;1106;48.762;9.168;2022-07-04T04:02:45;29.00;;;27.27;;
2199;SDS011;1106;48.762;9.168;2022-07-04T04:05:12;26.33;;;24.63;;
2199;SDS011;1106;48.762;9.168;2022-07-04T04:07:58;30.33;;;28.43;;
2199;SDS011;1106;48.762;9.168;2022-07-04T04:10:26;30.17;;;28.37;;
2199;SDS011;1106;48.762;9.168;2022-07-04T04:12:54;27.40;;;25.73;;
2199;SDS011;1106;48.762;9.168;2022-07-04T04:15:21;29.00;;;27.20;;
2199;SDS011;1106;48.762;9.168;2022-07-04T04:17:48;27.70;;;25.70;;
2199;SDS011;1106;48.762;9.168;2022-07-04T04:20:15;29.00;;;27.37;;
2199;SDS011;1106;48.762;9.168;2022-07-04T04:22:42;29.27;;;27.37;;
2199;SDS011;1106;48.762;9.168;2022-07-04T04:25:10;29.90;;;27.90;;
2199;SDS011;1106;48.762;9.168;2022-07-04T04:27:37;30.57;;;28.83;;
2199;SDS011;1106;48.762;9.168;2022-07-04T04:30:04;27.57;;;25.90;;
2199;SDS011;1106;48.762;9.168;2022-07-04T04:32:32;32.10;;;30.00;;
2199;SDS011;1106;48.762;9.168;2022-07-04T04:34:59;27.30;;;25.80;;
2199;SDS011;1106;48.762;9.168;2022-07-04T04:37:26;28.77;;;27.07;;
2199;SDS011;1106;48.762;9.168;2022-07-04T04:39:53;32.10;;;30.10;;
2199;SDS011;1106;48.762;9.168;2022-07-04T04:42:21;30.20;;;28.20;;
2199;SDS011;1106;48.762;9.168;2022-07-04T04:44:48;28.00;;;26.40;;
2199;SDS011;1106;48.762;9.168;2022-07-04T04:47:15;27.83;;;26.23;;
2199;SDS011;1106;48.762;9.168;2022-07-04T04:49:42;29.60;;;27.70;;
2199;SDS011;1106;48.762;9.168;2022-07-04T04:52:09;29.33;;;27.77;;
2199;SDS011;1106;48.762;9.168;2022-07-04T04:54:36;31.27;;;29.17;;
2199;SDS011;1106;48.762;9.168;2022-07-04T04:57:04;28.20;;;26.10;;
2199;SDS011;1106;48.762;9.168;2022-07-04T04:59:33;29.43;;;27.53;;
2199;SDS011;1106;48.762;9.168;2022-07-04T05:02:00;27.83;;;26.33;;
2199;SDS011;1106;48.762;9.168;2022-07-04T05:04:27;31.57;;;29.87;;
2199;SDS011;1106;48.762;9.168;2022-07-04T05:06:54;31.40;;;29.07;;
2199;SDS011;1106;48.762;9.168;2022-07-04T05:09:21;32.70;;;30.80;;
2199;SDS011;1106;48.762;9.168;2022-07-04T05:11:48;31.53;;;29.73;;
2199;SDS011;1106;48.762;9.168;2022-07-04T05:14:15;29.00;;;27.30;;
2199;SDS011;1106;48.762;9.168;2022-07-04T05:16:44;27.80;;;26.20;;
2199;SDS011;1106;48.762;9.168;2022-07-04T05:19:11;32.50;;;30.57;;
2199;SDS011;1106;48.762;9.168;2022-07-04T05:21:38;28.97;;;27.37;;
2199;SDS011;1106;48.762;9.168;2022-07-04T05:24:05;30.20;;;28.50;;
2199;SDS011;1106;48.762;9.168;2022-07-04T05:26:32;28.33;;;26.73;;
2199;SDS011;1106;48.762;9.168;2022-07-04T05:28:59;29.90;;;28.10;;
2199;SDS011;1106;48.762;9.168;2022-07-04T05:31:26;30.30;;;28.37;;
2199;SDS011;1106;48.762;9.168;2022-07-04T05:33:55;32.10;;;30.00;;
2199;SDS011;1106;48.762;9.168;2022-07-04T05:36:22;27.80;;;26.20;;
2199;SDS011;1106;48.762;9.168;2022-07-04T05:38:49;29.53;;;27.73;;
2199;SDS011;1106;48.762;9.168;2022-07-04T05:41:16;28.93;;;27.33;;
2199;SDS011;1106;48.762;9.168;2022-07-04T05:43:43;30.17;;;28.17;;
2199;SDS011;1106;48.762;9.168;2022-07-04T05:46:10;30.47;;;28.67;;
2199;SDS011;1106;48.762;9.168;2022-07-04T05:48:37;27.60;;;25.90;;
2199;SDS011;1106;48.762;9.168;2022-07-04T05:51:05;27.60;;;26.03;;
2199;SDS011;1106;48.762;9.168;2022-07-04T05:53:32;29.40;;;27.70;;
2199;SDS011;1106;48.762;9.168;2022-07-04T05:56:01;28.80;;;27.00;;
2199;SDS011;1106;48.762;9.168;2022-07-04T05:58:28;30.60;;;28.70;;
2199;SDS011;1106;48.762;9.168;2022-07-04T06:00:55;31.43;;;29.63;;
2199;SDS011;1106;48.762;9.168;2022-07-04T06:03:22;30.80;;;29.10;;
2199;SDS011;1106;48.762;9.168;2022-07-04T06:05:49;30.90;;;29.10;;
2199;SDS011;1106;48.762;9.168;2022-07-04T06:08:17;30.63;;;28.80;;
2199;SDS011;1106;48.762;9.168;2022-07-04T06:10:45;30.50;;;28.80;;
2199;SDS011;1106;48.762;9.168;2022-07-04T06:13:12;29.27;;;27.50;;
2199;SDS011;1106;48.762;9.168;2022-07-04T06:15:39;28.07;;;26.23;;
2199;SDS011;1106;48.762;9.168;2022-07-04T06:18:06;29.13;;;26.90;;
2199;SDS011;1106;48.762;9.168;2022-07-04T06:20:33;28.33;;;26.60;;
2199;SDS011;1106;48.762;9.168;2022-07-04T06:23:00;29.93;;;27.83;;
2199;SDS011;1106;48.762;9.168;2022-07-04T06:25:28;29.67;;;27.90;;
2199;SDS011;1106;48.762;9.168;2022-07-04T06:27:56;29.20;;;27.50;;
2199;SDS011;1106;48.762;9.168;2022-07-04T06:30:30;30.60;;;28.90;;
2199;SDS011;1106;48.762;9.168;2022-07-04T06:32:57;28.13;;;26.43;;
2199;SDS011;1106;48.762;9.168;2022-07-04T06:35:26;29.37;;;27.77;;
2199;SDS011;1106;48.762;9.168;2022-07-04T06:38:14;30.57;;;28.77;;
2199;SDS011;1106;48.762;9.168;2022-07-04T06:40:43;29.90;;;28.00;;
2199;SDS011;1106;48.762;9.168;2022-07-04T06:43:10;28.10;;;26.60;;
2199;SDS011;1106;48.762;9.168;2022-07-04T06:45:38;28.23;;;26.33;;
2199;SDS011;1106;48.762;9.168;2022-07-04T06:48:05;28.70;;;26.90;;
2199;SDS011;1106;48.762;9.168;2022-07-04T06:50:33;33.33;;;31.43;;
2199;SDS011;1106;48.762;9.168;2022-07-04T06:53:00;32.63;;;30.43;;
2199;SDS011;1106;48.762;9.168;2022-07-04T06:55:30;28.40;;;26.63;;
2199;SDS011;1106;48.762;9.168;2022-07-04T06:58:04;29.10;;;27.20;;
2199;SDS011;1106;48.762;9.168;2022-07-04T07:00:31;28.37;;;26.73;;
2199;SDS011;1106;48.762;9.168;2022-07-04T07:02:58;29.83;;;27.70;;
2199;SDS011;1106;48.762;9.168;2022-07-04T07:05:26;31.33;;;29.20;;
2199;SDS011;1106;48.762;9.168;2022-07-04T07:07:54;28.20;;;26.40;;
2199;SDS011;1106;48.762;9.168;2022-07-04T07:10:21;31.60;;;29.80;;
2199;SDS011;1106;48.762;9.168;2022-07-04T07:12:48;31.10;;;29.20;;
2199;SDS011;1106;48.762;9.168;2022-07-04T07:15:16;31.13;;;29.03;;
2199;SDS011;1106;48.762;9.168;2022-07-04T07:17:44;28.47;;;26.77;;
2199;SDS011;1106;48.762;9.168;2022-07-04T07:20:12;30.60;;;28.70;;
2199;SDS011;1106;48.762;9.168;2022-07-04T07:22:39;27.43;;;25.80;;
2199;SDS011;1106;48.762;9.168;2022-07-04T07:25:07;31.00;;;28.90;;
2199;SDS011;1106;48.762;9.168;2022-07-04T07:27:35;31.67;;;29.60;;
2199;SDS011;1106;48.762;9.168;2022-07-04T07:30:02;29.60;;;27.80;;
2199;SDS011;1106;48.762;9.168;2022-07-04T07:32:31;28.90;;;27.00;;
2199;SDS011;1106;48.762;9.168;2022-07-04T07:34:58;29.77;;;28.07;;
2199;SDS011;1106;48.762;9.168;2022-07-04T07:37:25;29.40;;;27.40;;
2199;SDS011;1106;48.762;9.168;2022-07-04T07:39:52;30.60;;;28.70;;
2199;SDS011;1106;48.762;9.168;2022-07-04T07:42:22;28.87;;;27.17;;
2199;SDS011;1106;48.762;9.168;2022-07-04T07:44:54;29.53;;;27.73;;
2199;SDS011;1106;48.762;9.168;2022-07-04T07:47:22;29.70;;;28.00;;
2199;SDS011;1106;48.762;9.168;2022-07-04T07:49:50;33.20;;;31.40;;
2199;SDS011;1106;48.762;9.168;2022-07-04T07:52:17;28.80;;;27.10;;
2199;SDS011;1106;48.762;9.168;2022-07-04T07:54:44;28.43;;;26.73;;
2199;SDS011;1106;48.762;9.168;2022-07-04T07:57:14;27.37;;;25.77;;
2199;SDS011;1106;48.762;9.168;2022-07-04T07:59:41;30.80;;;28.90;;
2199;SDS011;1106;48.762;9.168;2022-07-04T08:02:08;28.83;;;27.03;;
2199;SDS011;1106;48.762;9.168;2022-07-04T08:04:35;30.60;;;29.00;;
2199;SDS011;1106;48.762;9.168;2022-07-04T08:07:04;28.77;;;27.13;;
2199;SDS011;1106;48.762;9.168;2022-07-04T08:09:32;28.43;;;26.67;;
2199;SDS011;1106;48.762;9.168;2022-07-04T08:11:59;31.07;;;29.37;;
2199;SDS011;1106;48.762;9.168;2022-07-04T08:14:27;29.93;;;28.23;;
2199;SDS011;1106;48.762;9.168;2022-07-04T08:16:55;29.03;;;27.23;;
2199;SDS011;1106;48.762;9.168;2022-07-04T08:19:22;30.33;;;28.40;;
2199;SDS011;1106;48.762;9.168;2022-07-04T08:21:50;28.00;;;26.30;;
2199;SDS011;1106;48.762;9.168;2022-07-04T08:24:18;29.30;;;27.63;;
2199;SDS011;1106;48.762;9.168;2022-07-04T08:26:47;29.40;;;27.60;;
2199;SDS011;1106;48.762;9.168;2022-07-04T08:29:14;29.20;;;27.30;;
2199;SDS011;1106;48.762;9.168;2022-07-04T08:31:41;28.43;;;26.53;;
2199;SDS011;1106;48.762;9.168;2022-07-04T08:34:08;28.83;;;27.00;;
2199;SDS011;1106;48.762;9.168;2022-07-04T08:36:35;28.80;;;27.20;;
2199;SDS011;1106;48.762;9.168;2022-07-04T08:39:02;31.30;;;29.40;;
2199;SDS011;1106;48.762;9.168;2022-07-04T08:41:34;29.40;;;27.43;;
2199;SDS011;1106;48.762;9.168;2022-07-04T08:44:04;30.00;;;28.30;;
2199;SDS011;1106;48.762;9.168;2022-07-04T08:46:35;30.10;;;28.50;;
2199;SDS011;1106;48.762;9.168;2022-07-04T08:49:06;29.33;;;27.70;;
2199;SDS011;1106;48.762;9.168;2022-07-04T08:51:39;28.17;;;26.60;;
2199;SDS011;1106;48.762;9.168;2022-07-04T08:54:17;28.73;;;27.03;;
2199;SDS011;1106;48.762;9.168;2022-07-04T08:57:04;29.20;;;27.20;;
2199;SDS011;1106;48.762;9.168;2022-07-04T08:59:49;30.83;;;28.83;;
2199;SDS011;1106;48.762;9.168;2022-07-04T09:02:16;32.90;;;30.90;;
2199;SDS011;1106;48.762;9.168;2022-07-04T09:04:45;29.27;;;27.67;;
2199;SDS011;1106;48.762;9.168;2022-07-04T09:07:13;31.73;;;29.83;;
2199;SDS011;1106;48.762;9.168;2022-07-04T09:09:40;30.10;;;28.30;;
2199;SDS011;1106;48.762;9.168;2022-07-04T09:12:09;30.07;;;28.10;;
2199;SDS011;1106;48.762;9.168;2022-07-04T09:14:37;29.70;;;27.90;;
2199;SDS011;1106;48.762;9.168;2022-07-04T09:17:04;30.70;;;29.00;;
2199;SDS011;1106;48.762;9.168;2022-07-04T09:19:32;29.30;;;27.67;;
2199;SDS011;1106;48.762;9.168;2022-07-04T09:22:03;29.20;;;27.10;;
2199;SDS011;1106;48.762;9.168;2022-07-04T09:24:45;30.30;;;28.20;;
2199;SDS011;1106;48.762;9.168;2022-07-04T09:27:28;29.90;;;28.20;;
2199;SDS011;1106;48.762;9.168;2022-07-04T09:29:56;30.30;;;28.40;;
2199;SDS011;1106;48.762;9.168;2022-07-04T09:32:32;31.67;;;29.77;;
2199;SDS011;1106;48.762;9.168;2022-07-04T09:35:00;32.10;;;30.27;;
2199;SDS011;1106;48.762;9.168;2022-07-04T09:37:38;30.13;;;28.13;;
2199;SDS011;1106;48.762;9.168;2022-07-04T09:40:08;29.57;;;27.87;;
2199;SDS011;1106;48.762;9.168;2022-07-04T09:42:38;31.77;;;29.73;;
2199;SDS011;1106;48.762;9.168;2022-07-04T09:45:07;32.53;;;30.63;;
2199;SDS011;1106;48.762;9.168;2022-07-04T09:47:36;30.73;;;28.63;;
2199;SDS011;1106;48.762;9.168;2022-07-04T09:50:05;33.33;;;31.10;;
2199;SDS011;1106;48.762;9.168;2022-07-04T09:52:43;30.43;;;28.73;;
2199;SDS011;1106;48.762;9.168;2022-07-04T09:55:22;29.77;;;28.07;;
2199;SDS011;1106;48.762;9.168;2022-07-04T09:57:53;30.80;;;28.90;;
2199;SDS011;1106;48.762;9.168;2022-07-04T10:00:22;30.10;;;28.40;;
2199;SDS011;1106;48.762;9.168;2022-07-04T10:02:51;32.10;;;30.30;;
2199;SDS011;1106;48.762;9.168;2022-07-04T10:05:21;30.57;;;28.77;;
2199;SDS011;1106;48.762;9.168;2022-07-04T10:07:50;31.37;;;29.57;;
2199;SDS011;1106;48.762;9.168;2022-07-04T10:10:20;29.87;;;28.23;;
2199;SDS011;1106;48.762;9.168;2022-07-04T10:12:49;31.37;;;29.37;;
2199;SDS011;1106;48.762;9.168;2022-07-04T10:15:18;32.10;;;30.03;;
2199;SDS011;1106;48.762;9.168;2022-07-04T10:17:45;33.93;;;31.70;;
2199;SDS011;1106;48.762;9.168;2022-07-04T10:20:12;30.40;;;28.60;;
2199;SDS011;1106;48.762;9.168;2022-07-04T10:22:40;29.20;;;27.40;;
2199;SDS011;1106;48.762;9.168;2022-07-04T10:25:08;28.43;;;26.77;;
2199;SDS011;1106;48.762;9.168;2022-07-04T10:27:36;31.73;;;29.70;;
2199;SDS011;1106;48.762;9.168;2022-07-04T10:30:04;30.17;;;28.40;;
2199;SDS011;1106;48.762;9.168;2022-07-04T10:32:34;31.83;;;29.73;;
2199;SDS011;1106;48.762;9.168;2022-07-04T10:35:02;31.50;;;29.70;;
2199;SDS011;1106;48.762;9.168;2022-07-04T10:40:43;32.00;;;30.10;;
2199;SDS011;1106;48.762;9.168;2022-07-04T10:46:28;33.77;;;31.67;;
2199;SDS011;1106;48.762;9.168;2022-07-04T10:49:01;31.40;;;29.47;;
2199;SDS011;1106;48.762;9.168;2022-07-04T10:51:34;31.13;;;29.23;;
2199;SDS011;1106;48.762;9.168;2022-07-04T10:54:07;32.73;;;30.43;;
2199;SDS011;1106;48.762;9.168;2022-07-04T10:56:42;32.80;;;30.43;;
2199;SDS011;1106;48.762;9.168;2022-07-04T10:59:20;34.00;;;32.07;;
2199;SDS011;1106;48.762;9.168;2022-07-04T11:01:52;31.80;;;30.20;;
2199;SDS011;1106;48.762;9.168;2022-07-04T11:07:16;29.90;;;28.03;;
2199;SDS011;1106;48.762;9.168;2022-07-04T11:09:45;29.40;;;27.60;;
2199;SDS011;1106;48.762;9.168;2022-07-04T11:12:32;29.63;;;27.93;;
2199;SDS011;1106;48.762;9.168;2022-07-04T11:15:17;30.73;;;28.93;;
2199;SDS011;1106;48.762;9.168;2022-07-04T11:18:07;30.60;;;28.80;;
2199;SDS011;1106;48.762;9.168;2022-07-04T11:20:40;30.00;;;28.20;;
2199;SDS011;1106;48.762;9.168;2022-07-04T11:23:11;31.40;;;29.30;;
2199;SDS011;1106;48.762;9.168;2022-07-04T11:25:41;29.40;;;27.60;;
2199;SDS011;1106;48.762;9.168;2022-07-04T11:28:17;31.93;;;30.03;;
2199;SDS011;1106;48.762;9.168;2022-07-04T11:30:47;30.90;;;28.90;;
2199;SDS011;1106;48.762;9.168;2022-07-04T11:33:16;35.50;;;33.37;;
2199;SDS011;1106;48.762;9.168;2022-07-04T11:35:45;33.90;;;31.50;;
2199;SDS011;1106;48.762;9.168;2022-07-04T11:38:42;31.10;;;29.20;;
2199;SDS011;1106;48.762;9.168;2022-07-04T11:41:13;30.63;;;28.77;;
2199;SDS011;1106;48.762;9.168;2022-07-04T11:44:04;31.63;;;29.83;;
2199;SDS011;1106;48.762;9.168;2022-07-04T11:46:49;30.67;;;28.90;;
2199;SDS011;1106;48.762;9.168;2022-07-04T11:49:17;35.20;;;32.77;;
2199;SDS011;1106;48.762;9.168;2022-07-04T11:51:46;32.80;;;30.63;;
2199;SDS011;1106;48.762;9.168;2022-07-04T11:54:14;30.77;;;28.87;;
2199;SDS011;1106;48.762;9.168;2022-07-04T11:56:43;29.30;;;27.63;;
2199;SDS011;1106;48.762;9.168;2022-07-04T11:59:10;35.17;;;32.93;;
2199;SDS011;1106;48.762;9.168;2022-07-04T12:01:40;32.53;;;30.63;;
2199;SDS011;1106;48.762;9.168;2022-07-04T12:04:11;33.13;;;31.10;;
2199;SDS011;1106;48.762;9.168;2022-07-04T12:06:42;30.97;;;29.27;;
2199;SDS011;1106;48.762;9.168;2022-07-04T12:09:11;33.00;;;31.10;;
2199;SDS011;1106;48.762;9.168;2022-07-04T12:11:50;33.37;;;31.57;;
2199;SDS011;1106;48.762;9.168;2022-07-04T12:14:20;30.50;;;28.80;;
2199;SDS011;1106;48.762;9.168;2022-07-04T12:16:47;33.07;;;31.17;;
2199;SDS011;1106;48.762;9.168;2022-07-04T12:19:15;34.07;;;31.97;;
2199;SDS011;1106;48.762;9.168;2022-07-04T12:21:42;33.43;;;31.43;;
2199;SDS011;1106;48.762;9.168;2022-07-04T12:24:11;30.83;;;29.07;;
2199;SDS011;1106;48.762;9.168;2022-07-04T12:26:46;31.00;;;29.30;;
2199;SDS011;1106;48.762;9.168;2022-07-04T12:29:20;32.73;;;30.70;;
2199;SDS011;1106;48.762;9.168;2022-07-04T12:31:50;37.10;;;34.57;;
2199;SDS011;1106;48.762;9.168;2022-07-04T12:34:19;31.47;;;29.67;;
2199;SDS011;1106;48.762;9.168;2022-07-04T12:36:49;31.37;;;29.67;;
2199;SDS011;1106;48.762;9.168;2022-07-04T12:39:28;31.30;;;29.30;;
2199;SDS011;1106;48.762;9.168;2022-07-04T12:42:05;33.80;;;31.63;;
2199;SDS011;1106;48.762;9.168;2022-07-04T12:44:33;29.80;;;28.10;;
2199;SDS011;1106;48.762;9.168;2022-07-04T12:47:01;31.70;;;29.80;;
2199;SDS011;1106;48.762;9.168;2022-07-04T12:49:29;36.03;;;34.13;;
2199;SDS011;1106;48.762;9.168;2022-07-04T12:52:06;31.83;;;29.83;;
2199;SDS011;1106;48.762;9.168;2022-07-04T12:54:36;36.33;;;34.23;;
2199;SDS011;1106;48.762;9.168;2022-07-04T12:57:08;31.60;;;29.80;;
2199;SDS011;1106;48.762;9.168;2022-07-04T12:59:38;32.00;;;30.10;;
2199;SDS011;1106;48.762;9.168;2022-07-04T13:02:05;31.70;;;29.87;;
2199;SDS011;1106;48.762;9.168;2022-07-04T13:04:33;31.50;;;29.60;;
2199;SDS011;1106;48.762;9.168;2022-07-04T13:07:11;31.40;;;29.60;;
2199;SDS011;1106;48.762;9.168;2022-07-04T13:09:41;33.00;;;31.20;;
2199;SDS011;1106;48.762;9.168;2022-07-04T13:12:09;31.83;;;30.02;;
2199;SDS011;1106;48.762;9.168;2022-07-04T13:14:53;31.30;;;29.40;;
2199;SDS011;1106;48.762;9.168;2022-07-04T13:17:22;31.33;;;29.20;;
2199;SDS011;1106;48.762;9.168;2022-07-04T13:19:50;33.23;;;31.07;;
2199;SDS011;1106;48.762;9.168;2022-07-04T13:22:18;32.10;;;30.20;;
2199;SDS011;1106;48.762;9.168;2022-07-04T13:24:47;34.40;;;32.60;;
2199;SDS011;1106;48.762;9.168;2022-07-04T13:27:14;30.60;;;28.90;;
2199;SDS011;1106;48.762;9.168;2022-07-04T13:29:42;32.33;;;30.30;;
2199;SDS011;1106;48.762;9.168;2022-07-04T13:32:09;32.40;;;30.50;;
2199;SDS011;1106;48.762;9.168;2022-07-04T13:34:36;35.13;;;33.10;;
2199;SDS011;1106;48.762;9.168;2022-07-04T13:37:03;29.07;;;27.47;;
2199;SDS011;1106;48.762;9.168;2022-07-04T13:39:31;28.60;;;26.87;;
2199;SDS011;1106;48.762;9.168;2022-07-04T13:42:00;33.53;;;31.70;;
2199;SDS011;1106;48.762;9.168;2022-07-04T13:44:28;30.57;;;28.80;;
2199;SDS011;1106;48.762;9.168;2022-07-04T13:46:55;36.77;;;34.60;;
2199;SDS011;1106;48.762;9.168;2022-07-04T13:49:23;33.20;;;31.30;;
2199;SDS011;1106;48.762;9.168;2022-07-04T13:51:51;32.30;;;30.50;;
2199;SDS011;1106;48.762;9.168;2022-07-04T13:54:18;30.33;;;28.53;;
2199;SDS011;1106;48.762;9.168;2022-07-04T13:56:45;31.40;;;29.60;;
2199;SDS011;1106;48.762;9.168;2022-07-04T13:59:13;29.50;;;27.60;;
2199;SDS011;1106;48.762;9.168;2022-07-04T14:01:40;34.10;;;32.30;;
2199;SDS011;1106;48.762;9.168;2022-07-04T14:04:07;31.30;;;29.30;;
2199;SDS011;1106;48.762;9.168;2022-07-04T14:06:34;30.30;;;28.50;;
2199;SDS011;1106;48.762;9.168;2022-07-04T14:09:01;29.67;;;27.97;;
2199;SDS011;1106;48.762;9.168;2022-07-04T14:11:28;30.73;;;28.50;;
2199;SDS011;1106;48.762;9.168;2022-07-04T14:13:55;30.90;;;29.00;;
2199;SDS011;1106;48.762;9.168;2022-07-04T14:16:24;32.10;;;30.00;;
2199;SDS011;1106;48.762;9.168;2022-07-04T14:18:51;31.60;;;29.73;;
2199;SDS011;1106;48.762;9.168;2022-07-04T14:21:17;31.67;;;29.80;;
2199;SDS011;1106;48.762;9.168;2022-07-04T14:23:44;34.23;;;31.93;;
2199;SDS011;1106;48.762;9.168;2022-07-04T14:26:12;32.00;;;30.20;;
2199;SDS011;1106;48.762;9.168;2022-07-04T14:28:40;32.17;;;29.97;;
2199;SDS011;1106;48.762;9.168;2022-07-04T14:31:09;35.43;;;33.43;;
2199;SDS011;1106;48.762;9.168;2022-07-04T14:33:38;34.57;;;32.57;;
2199;SDS011;1106;48.762;9.168;2022-07-04T14:36:05;31.47;;;29.77;;
2199;SDS011;1106;48.762;9.168;2022-07-04T14:38:33;31.10;;;29.10;;
2199;SDS011;1106;48.762;9.168;2022-07-04T14:41:00;30.63;;;28.50;;
2199;SDS011;1106;48.762;9.168;2022-07-04T14:43:36;34.50;;;32.40;;
2199;SDS011;1106;48.762;9.168;2022-07-04T14:46:04;30.87;;;29.23;;
2199;SDS011;1106;48.762;9.168;2022-07-04T14:48:31;31.83;;;30.13;;
2199;SDS011;1106;48.762;9.168;2022-07-04T14:51:00;33.70;;;31.80;;
2199;SDS011;1106;48.762;9.168;2022-07-04T14:53:27;31.60;;;29.60;;
2199;SDS011;1106;48.762;9.168;2022-07-04T14:55:54;36.20;;;34.20;;
2199;SDS011;1106;48.762;9.168;2022-07-04T14:58:21;35.50;;;33.70;;
2199;SDS011;1106;48.762;9.168;2022-07-04T15:00:48;33.77;;;31.77;;
2199;SDS011;1106;48.762;9.168;2022-07-04T15:03:15;31.90;;;29.90;;
2199;SDS011;1106;48.762;9.168;2022-07-04T15:05:42;31.80;;;30.07;;
2199;SDS011;1106;48.762;9.168;2022-07-04T15:08:10;31.00;;;29.30;;